sensor_id;sensor_type;location;lat;lon;timestamp;temperature;humidity
13464;DHT22;6804;48.774;9.174;2023-11-21T00:02:32;10.80;99.90
13464;DHT22;6804;48.774;9.174;2023-11-21T00:05:00;10.80;99.90
13464;DHT22;6804;48.774;9.174;2023-11-21T00:07:31;10.70;99.90
13464;DHT22;6804;48.774;9.174;2023-11-21T00:10:02;10.70;99.90
13464;DHT22;6804;48.774;9.174;2023-11-21T00:12:31;10.70;99.90
13464;DHT22;6804;48.774;9.174;2023-11-21T00:14:59;10.70;99.90
13464;DHT22;6804;48.774;9.174;2023-11-21T00:17:27;10.70;99.90
13464;DHT22;6804;48.774;9.174;2023-11-21T00:19:56;10.70;99.90
13464;DHT22;6804;48.774;9.174;2023-11-21T00:22:24;10.60;99.90
13464;DHT22;6804;48.774;9.174;2023-11-21T00:24:52;10.60;99.90
13464;DHT22;6804;48.774;9.174;2023-11-21T00:27:20;10.60;99.90
13464;DHT22;6804;48.774;9.174;2023-11-21T00:29:49;10.60;99.90
13464;DHT22;6804;48.774;9.174;2023-11-21T00:32:17;10.60;99.90
13464;DHT22;6804;48.774;9.174;2023-11-21T00:34:46;10.50;99.90
13464;DHT22;6804;48.774;9.174;2023-11-21T00:37:18;10.50;99.90
13464;DHT22;6804;48.774;9.174;2023-11-21T00:39:45;10.50;99.90
13464;DHT22;6804;48.774;9.174;2023-11-21T00:42:15;10.50;99.90
13464;DHT22;6804;48.774;9.174;2023-11-21T00:44:44;10.50;99.90
13464;DHT22;6804;48.774;9.174;2023-11-21T00:47:15;10.50;99.90
13464;DHT22;6804;48.774;9.174;2023-11-21T00:49:45;10.50;99.90
13464;DHT22;6804;48.774;9.174;2023-11-21T00:52:13;10.50;99.90
13464;DHT22;6804;48.774;9.174;2023-11-21T00:54:45;10.50;99.90
13464;DHT22;6804;48.774;9.174;2023-11-21T00:57:14;10.50;99.90
13464;DHT22;6804;48.774;9.174;2023-11-21T00:59:46;10.50;99.90
13464;DHT22;6804;48.774;9.174;2023-11-21T01:02:16;10.50;99.90
13464;DHT22;6804;48.774;9.174;2023-11-21T01:04:47;10.50;99.90
13464;DHT22;6804;48.774;9.174;2023-11-21T01:07:16;10.50;99.90
13464;DHT22;6804;48.774;9.174;2023-11-21T01:09:48;10.50;99.90
13464;DHT22;6804;48.774;9.174;2023-11-21T01:12:16;10.50;99.90
13464;DHT22;6804;48.774;9.174;2023-11-21T01:14:44;10.50;99.90
13464;DHT22;6804;48.774;9.174;2023-11-21T01:17:14;10.50;99.90
13464;DHT22;6804;48.774;9.174;2023-11-21T01:19:47;10.50;99.90
13464;DHT22;6804;48.774;9.174;2023-11-21T01:22:21;10.50;99.90
13464;DHT22;6804;48.774;9.174;2023-11-21T01:24:53;10.50;99.90
13464;DHT22;6804;48.774;9.174;2023-11-21T01:27:22;10.50;99.90
13464;DHT22;6804;48.774;9.174;2023-11-21T01:29:55;10.50;99.90
13464;DHT22;6804;48.774;9.174;2023-11-21T01:32:26;10.40;99.90
13464;DHT22;6804;48.774;9.174;2023-11-21T01:34:57;10.50;99.90
13464;DHT22;6804;48.774;9.174;2023-11-21T01:37:25;10.50;99.90
13464;DHT22;6804;48.774;9.174;2023-11-21T01:39:58;10.40;99.90
13464;DHT22;6804;48.774;9.174;2023-11-21T01:42:27;10.50;99.90
13464;DHT22;6804;48.774;9.174;2023-11-21T01:44:57;10.50;99.90
13464;DHT22;6804;48.774;9.174;2023-11-21T01:47:31;10.50;99.90
13464;DHT22;6804;48.774;9.174;2023-11-21T01:50:00;10.50;99.90
13464;DHT22;6804;48.774;9.174;2023-11-21T01:52:27;10.40;99.90
13464;DHT22;6804;48.774;9.174;2023-11-21T01:54:55;10.50;99.90
13464;DHT22;6804;48.774;9.174;2023-11-21T01:57:24;10.50;99.90
13464;DHT22;6804;48.774;9.174;2023-11-21T01:59:54;10.50;99.90
13464;DHT22;6804;48.774;9.174;2023-11-21T02:02:22;10.50;99.90
13464;DHT22;6804;48.774;9.174;2023-11-21T02:04:51;10.50;99.90
13464;DHT22;6804;48.774;9.174;2023-11-21T02:07:19;10.50;99.90
13464;DHT22;6804;48.774;9.174;2023-11-21T02:09:49;10.50;99.90
13464;DHT22;6804;48.774;9.174;2023-11-21T02:12:17;10.50;99.90
13464;DHT22;6804;48.774;9.174;2023-11-21T02:14:46;10.50;99.90
13464;DHT22;6804;48.774;9.174;2023-11-21T02:17:16;10.50;99.90
13464;DHT22;6804;48.774;9.174;2023-11-21T02:19:44;10.50;99.90
13464;DHT22;6804;48.774;9.174;2023-11-21T02:22:16;10.50;99.90
13464;DHT22;6804;48.774;9.174;2023-11-21T02:24:48;10.50;99.90
13464;DHT22;6804;48.774;9.174;2023-11-21T02:27:18;10.50;99.90
13464;DHT22;6804;48.774;9.174;2023-11-21T02:29:47;10.50;99.90
13464;DHT22;6804;48.774;9.174;2023-11-21T02:32:15;10.50;99.90
13464;DHT22;6804;48.774;9.174;2023-11-21T02:34:49;10.50;99.90
13464;DHT22;6804;48.774;9.174;2023-11-21T02:37:18;10.50;99.90
13464;DHT22;6804;48.774;9.174;2023-11-21T02:39:48;10.50;99.90
13464;DHT22;6804;48.774;9.174;2023-11-21T02:42:18;10.50;99.90
13464;DHT22;6804;48.774;9.174;2023-11-21T02:44:46;10.50;99.90
13464;DHT22;6804;48.774;9.174;2023-11-21T02:47:16;10.50;99.90
13464;DHT22;6804;48.774;9.174;2023-11-21T02:49:46;10.60;99.90
13464;DHT22;6804;48.774;9.174;2023-11-21T02:52:14;10.50;99.90
13464;DHT22;6804;48.774;9.174;2023-11-21T02:54:44;10.50;99.90
13464;DHT22;6804;48.774;9.174;2023-11-21T02:57:16;10.60;99.90
13464;DHT22;6804;48.774;9.174;2023-11-21T02:59:42;10.60;99.90
13464;DHT22;6804;48.774;9.174;2023-11-21T03:02:10;10.60;99.90
13464;DHT22;6804;48.774;9.174;2023-11-21T03:04:40;10.50;99.90
13464;DHT22;6804;48.774;9.174;2023-11-21T03:07:08;10.50;99.90
13464;DHT22;6804;48.774;9.174;2023-11-21T03:09:41;10.50;99.90
13464;DHT22;6804;48.774;9.174;2023-11-21T03:12:10;10.50;99.90
13464;DHT22;6804;48.774;9.174;2023-11-21T03:14:39;10.50;99.90
13464;DHT22;6804;48.774;9.174;2023-11-21T03:17:07;10.50;99.90
13464;DHT22;6804;48.774;9.174;2023-11-21T03:19:37;10.50;99.90
13464;DHT22;6804;48.774;9.174;2023-11-21T03:22:04;10.50;99.90
13464;DHT22;6804;48.774;9.174;2023-11-21T03:24:35;10.50;99.90
13464;DHT22;6804;48.774;9.174;2023-11-21T03:27:06;10.50;99.90
13464;DHT22;6804;48.774;9.174;2023-11-21T03:29:33;10.50;99.90
13464;DHT22;6804;48.774;9.174;2023-11-21T03:32:02;10.50;99.90
13464;DHT22;6804;48.774;9.174;2023-11-21T03:34:30;10.50;99.90
13464;DHT22;6804;48.774;9.174;2023-11-21T03:36:57;10.50;99.90
13464;DHT22;6804;48.774;9.174;2023-11-21T03:39:24;10.50;99.90
13464;DHT22;6804;48.774;9.174;2023-11-21T03:41:58;10.50;99.90
13464;DHT22;6804;48.774;9.174;2023-11-21T03:44:26;10.50;99.90
13464;DHT22;6804;48.774;9.174;2023-11-21T03:46:54;10.50;99.90
13464;DHT22;6804;48.774;9.174;2023-11-21T03:49:22;10.50;99.90
13464;DHT22;6804;48.774;9.174;2023-11-21T03:51:53;10.50;99.90
13464;DHT22;6804;48.774;9.174;2023-11-21T03:54:20;10.50;99.90
13464;DHT22;6804;48.774;9.174;2023-11-21T03:56:47;10.40;99.90
13464;DHT22;6804;48.774;9.174;2023-11-21T03:59:15;10.50;99.90
13464;DHT22;6804;48.774;9.174;2023-11-21T04:01:42;10.50;99.90
13464;DHT22;6804;48.774;9.174;2023-11-21T04:04:10;10.40;99.90
13464;DHT22;6804;48.774;9.174;2023-11-21T04:06:42;10.40;99.90
13464;DHT22;6804;48.774;9.174;2023-11-21T04:09:13;10.40;99.90
13464;DHT22;6804;48.774;9.174;2023-11-21T04:11:41;10.40;99.90
13464;DHT22;6804;48.774;9.174;2023-11-21T04:14:11;10.30;99.90
13464;DHT22;6804;48.774;9.174;2023-11-21T04:16:42;10.30;99.90
13464;DHT22;6804;48.774;9.174;2023-11-21T04:19:09;10.30;99.90
13464;DHT22;6804;48.774;9.174;2023-11-21T04:21:42;10.30;99.90
13464;DHT22;6804;48.774;9.174;2023-11-21T04:24:09;10.30;99.90
13464;DHT22;6804;48.774;9.174;2023-11-21T04:26:42;10.30;99.90
13464;DHT22;6804;48.774;9.174;2023-11-21T04:29:10;10.30;99.90
13464;DHT22;6804;48.774;9.174;2023-11-21T04:31:40;10.30;99.90
13464;DHT22;6804;48.774;9.174;2023-11-21T04:34:09;10.30;99.90
13464;DHT22;6804;48.774;9.174;2023-11-21T04:36:36;10.20;99.90
13464;DHT22;6804;48.774;9.174;2023-11-21T04:39:05;10.30;99.90
13464;DHT22;6804;48.774;9.174;2023-11-21T04:41:32;10.30;99.90
13464;DHT22;6804;48.774;9.174;2023-11-21T04:44:00;10.30;99.90
13464;DHT22;6804;48.774;9.174;2023-11-21T04:46:30;10.30;99.90
13464;DHT22;6804;48.774;9.174;2023-11-21T04:48:58;10.30;99.90
13464;DHT22;6804;48.774;9.174;2023-11-21T04:51:29;10.20;99.90
13464;DHT22;6804;48.774;9.174;2023-11-21T04:54:00;10.20;99.90
13464;DHT22;6804;48.774;9.174;2023-11-21T04:56:33;10.20;99.90
13464;DHT22;6804;48.774;9.174;2023-11-21T04:59:00;10.30;99.90
13464;DHT22;6804;48.774;9.174;2023-11-21T05:01:27;10.30;99.90
13464;DHT22;6804;48.774;9.174;2023-11-21T05:03:55;10.30;99.90
13464;DHT22;6804;48.774;9.174;2023-11-21T05:06:23;10.30;99.90
13464;DHT22;6804;48.774;9.174;2023-11-21T05:08:50;10.30;99.90
13464;DHT22;6804;48.774;9.174;2023-11-21T05:11:24;10.30;99.90
13464;DHT22;6804;48.774;9.174;2023-11-21T05:13:53;10.30;99.90
13464;DHT22;6804;48.774;9.174;2023-11-21T05:16:22;10.30;99.90
13464;DHT22;6804;48.774;9.174;2023-11-21T05:18:49;10.30;99.90
13464;DHT22;6804;48.774;9.174;2023-11-21T05:21:17;10.40;99.90
13464;DHT22;6804;48.774;9.174;2023-11-21T05:23:46;10.30;99.90
13464;DHT22;6804;48.774;9.174;2023-11-21T05:26:14;10.40;99.90
13464;DHT22;6804;48.774;9.174;2023-11-21T05:28:43;10.40;99.90
13464;DHT22;6804;48.774;9.174;2023-11-21T05:31:15;10.40;99.90
13464;DHT22;6804;48.774;9.174;2023-11-21T05:33:43;10.40;99.90
13464;DHT22;6804;48.774;9.174;2023-11-21T05:36:12;10.40;99.90
13464;DHT22;6804;48.774;9.174;2023-11-21T05:38:43;10.30;99.90
13464;DHT22;6804;48.774;9.174;2023-11-21T05:41:12;10.40;99.90
13464;DHT22;6804;48.774;9.174;2023-11-21T05:43:58;10.40;99.90
13464;DHT22;6804;48.774;9.174;2023-11-21T05:46:28;10.40;99.90
13464;DHT22;6804;48.774;9.174;2023-11-21T05:49:04;10.40;99.90
13464;DHT22;6804;48.774;9.174;2023-11-21T05:51:32;10.40;99.90
13464;DHT22;6804;48.774;9.174;2023-11-21T05:54:03;10.30;99.90
13464;DHT22;6804;48.774;9.174;2023-11-21T05:56:34;10.30;99.90
13464;DHT22;6804;48.774;9.174;2023-11-21T05:59:03;10.30;99.90
13464;DHT22;6804;48.774;9.174;2023-11-21T06:01:36;10.30;99.90
13464;DHT22;6804;48.774;9.174;2023-11-21T06:04:05;10.30;99.90
13464;DHT22;6804;48.774;9.174;2023-11-21T06:06:37;10.40;99.90
13464;DHT22;6804;48.774;9.174;2023-11-21T06:09:08;10.30;99.90
13464;DHT22;6804;48.774;9.174;2023-11-21T06:11:38;10.30;99.90
13464;DHT22;6804;48.774;9.174;2023-11-21T06:14:05;10.30;99.90
13464;DHT22;6804;48.774;9.174;2023-11-21T06:16:37;10.30;99.90
13464;DHT22;6804;48.774;9.174;2023-11-21T06:19:06;10.30;99.90
13464;DHT22;6804;48.774;9.174;2023-11-21T06:21:35;10.30;99.90
13464;DHT22;6804;48.774;9.174;2023-11-21T06:24:04;10.30;99.90
13464;DHT22;6804;48.774;9.174;2023-11-21T06:26:36;10.30;99.90
13464;DHT22;6804;48.774;9.174;2023-11-21T06:29:05;10.30;99.90
13464;DHT22;6804;48.774;9.174;2023-11-21T06:31:36;10.30;99.90
13464;DHT22;6804;48.774;9.174;2023-11-21T06:34:08;10.30;99.90
13464;DHT22;6804;48.774;9.174;2023-11-21T06:36:36;10.30;99.90
13464;DHT22;6804;48.774;9.174;2023-11-21T06:39:04;10.30;99.90
13464;DHT22;6804;48.774;9.174;2023-11-21T06:41:56;10.30;99.90
13464;DHT22;6804;48.774;9.174;2023-11-21T06:44:27;10.40;99.90
13464;DHT22;6804;48.774;9.174;2023-11-21T06:46:58;10.40;99.90
13464;DHT22;6804;48.774;9.174;2023-11-21T06:49:28;10.40;99.90
13464;DHT22;6804;48.774;9.174;2023-11-21T06:51:57;10.50;99.90
13464;DHT22;6804;48.774;9.174;2023-11-21T06:54:27;10.40;99.90
13464;DHT22;6804;48.774;9.174;2023-11-21T06:56:55;10.40;99.90
13464;DHT22;6804;48.774;9.174;2023-11-21T06:59:24;10.50;99.90
13464;DHT22;6804;48.774;9.174;2023-11-21T07:01:53;10.50;99.90
13464;DHT22;6804;48.774;9.174;2023-11-21T07:04:25;10.50;99.90
13464;DHT22;6804;48.774;9.174;2023-11-21T07:06:54;10.40;99.90
13464;DHT22;6804;48.774;9.174;2023-11-21T07:09:26;10.40;99.90
13464;DHT22;6804;48.774;9.174;2023-11-21T07:11:58;10.40;99.90
13464;DHT22;6804;48.774;9.174;2023-11-21T07:14:48;10.40;99.90
13464;DHT22;6804;48.774;9.174;2023-11-21T07:17:18;10.50;99.90
13464;DHT22;6804;48.774;9.174;2023-11-21T07:19:47;10.40;99.90
13464;DHT22;6804;48.774;9.174;2023-11-21T07:22:17;10.40;99.90
13464;DHT22;6804;48.774;9.174;2023-11-21T07:24:49;10.40;99.90
13464;DHT22;6804;48.774;9.174;2023-11-21T07:27:20;10.40;99.90
13464;DHT22;6804;48.774;9.174;2023-11-21T07:29:48;10.50;99.90
13464;DHT22;6804;48.774;9.174;2023-11-21T07:32:16;10.40;99.90
13464;DHT22;6804;48.774;9.174;2023-11-21T07:34:48;10.50;99.90
13464;DHT22;6804;48.774;9.174;2023-11-21T07:37:16;10.50;99.90
13464;DHT22;6804;48.774;9.174;2023-11-21T07:39:47;10.40;99.90
13464;DHT22;6804;48.774;9.174;2023-11-21T07:42:38;10.50;99.90
13464;DHT22;6804;48.774;9.174;2023-11-21T07:45:10;10.40;99.90
13464;DHT22;6804;48.774;9.174;2023-11-21T07:47:39;10.50;99.90
13464;DHT22;6804;48.774;9.174;2023-11-21T07:50:11;10.50;99.90
13464;DHT22;6804;48.774;9.174;2023-11-21T07:52:40;10.50;99.90
13464;DHT22;6804;48.774;9.174;2023-11-21T07:55:09;10.40;99.90
13464;DHT22;6804;48.774;9.174;2023-11-21T07:57:38;10.40;99.90
13464;DHT22;6804;48.774;9.174;2023-11-21T08:00:10;10.50;99.90
13464;DHT22;6804;48.774;9.174;2023-11-21T08:02:40;10.50;99.90
13464;DHT22;6804;48.774;9.174;2023-11-21T08:05:10;10.50;99.90
13464;DHT22;6804;48.774;9.174;2023-11-21T08:07:41;10.50;99.90
13464;DHT22;6804;48.774;9.174;2023-11-21T08:10:09;10.50;99.90
13464;DHT22;6804;48.774;9.174;2023-11-21T08:12:38;10.50;99.90
13464;DHT22;6804;48.774;9.174;2023-11-21T08:15:07;10.50;99.90
13464;DHT22;6804;48.774;9.174;2023-11-21T08:17:37;10.50;99.90
13464;DHT22;6804;48.774;9.174;2023-11-21T08:20:09;10.50;99.90
13464;DHT22;6804;48.774;9.174;2023-11-21T08:22:39;10.60;99.90
13464;DHT22;6804;48.774;9.174;2023-11-21T08:25:09;10.50;99.90
13464;DHT22;6804;48.774;9.174;2023-11-21T08:27:37;10.60;99.90
13464;DHT22;6804;48.774;9.174;2023-11-21T08:30:06;10.50;99.90
13464;DHT22;6804;48.774;9.174;2023-11-21T08:32:39;10.60;99.90
13464;DHT22;6804;48.774;9.174;2023-11-21T08:35:10;10.60;99.90
13464;DHT22;6804;48.774;9.174;2023-11-21T08:37:41;10.60;99.90
13464;DHT22;6804;48.774;9.174;2023-11-21T08:40:10;10.60;99.90
13464;DHT22;6804;48.774;9.174;2023-11-21T08:42:42;10.60;99.90
13464;DHT22;6804;48.774;9.174;2023-11-21T08:45:14;10.60;99.90
13464;DHT22;6804;48.774;9.174;2023-11-21T08:47:46;10.70;99.90
13464;DHT22;6804;48.774;9.174;2023-11-21T08:50:15;10.80;99.90
13464;DHT22;6804;48.774;9.174;2023-11-21T08:52:46;10.70;99.90
13464;DHT22;6804;48.774;9.174;2023-11-21T08:55:14;10.80;99.90
13464;DHT22;6804;48.774;9.174;2023-11-21T08:57:47;10.80;99.90
13464;DHT22;6804;48.774;9.174;2023-11-21T09:00:19;10.90;99.90
13464;DHT22;6804;48.774;9.174;2023-11-21T09:02:50;10.90;99.90
13464;DHT22;6804;48.774;9.174;2023-11-21T09:05:19;11.00;99.90
13464;DHT22;6804;48.774;9.174;2023-11-21T09:07:48;11.00;99.90
13464;DHT22;6804;48.774;9.174;2023-11-21T09:10:17;11.10;99.90
13464;DHT22;6804;48.774;9.174;2023-11-21T09:12:59;11.20;99.90
13464;DHT22;6804;48.774;9.174;2023-11-21T09:15:30;11.30;99.90
13464;DHT22;6804;48.774;9.174;2023-11-21T09:17:58;11.30;99.90
13464;DHT22;6804;48.774;9.174;2023-11-21T09:20:28;11.30;99.90
13464;DHT22;6804;48.774;9.174;2023-11-21T09:22:59;11.30;99.90
13464;DHT22;6804;48.774;9.174;2023-11-21T09:25:46;11.40;99.90
13464;DHT22;6804;48.774;9.174;2023-11-21T09:28:35;11.40;99.90
13464;DHT22;6804;48.774;9.174;2023-11-21T09:31:04;11.50;99.90
13464;DHT22;6804;48.774;9.174;2023-11-21T09:33:35;11.60;99.90
13464;DHT22;6804;48.774;9.174;2023-11-21T09:36:05;11.60;99.90
13464;DHT22;6804;48.774;9.174;2023-11-21T09:38:41;11.60;99.90
13464;DHT22;6804;48.774;9.174;2023-11-21T09:41:18;11.70;99.90
13464;DHT22;6804;48.774;9.174;2023-11-21T09:43:51;11.70;99.90
13464;DHT22;6804;48.774;9.174;2023-11-21T09:46:24;11.70;99.90
13464;DHT22;6804;48.774;9.174;2023-11-21T09:49:01;11.70;99.90
13464;DHT22;6804;48.774;9.174;2023-11-21T09:51:36;11.60;99.90
13464;DHT22;6804;48.774;9.174;2023-11-21T09:54:11;11.60;99.90
13464;DHT22;6804;48.774;9.174;2023-11-21T09:56:41;11.60;99.90
13464;DHT22;6804;48.774;9.174;2023-11-21T09:59:15;11.50;99.90
13464;DHT22;6804;48.774;9.174;2023-11-21T10:01:50;11.50;99.90
13464;DHT22;6804;48.774;9.174;2023-11-21T10:04:19;11.50;99.90
13464;DHT22;6804;48.774;9.174;2023-11-21T10:06:54;11.50;99.90
13464;DHT22;6804;48.774;9.174;2023-11-21T10:09:25;11.50;99.90
13464;DHT22;6804;48.774;9.174;2023-11-21T10:11:54;11.50;99.90
13464;DHT22;6804;48.774;9.174;2023-11-21T10:14:26;11.50;99.90
13464;DHT22;6804;48.774;9.174;2023-11-21T10:16:57;11.50;99.90
13464;DHT22;6804;48.774;9.174;2023-11-21T10:19:29;11.50;99.90
13464;DHT22;6804;48.774;9.174;2023-11-21T10:22:02;11.50;99.90
13464;DHT22;6804;48.774;9.174;2023-11-21T10:24:31;11.50;99.90
13464;DHT22;6804;48.774;9.174;2023-11-21T10:27:02;11.50;99.90
13464;DHT22;6804;48.774;9.174;2023-11-21T10:29:33;11.50;99.90
13464;DHT22;6804;48.774;9.174;2023-11-21T10:32:03;11.50;99.90
13464;DHT22;6804;48.774;9.174;2023-11-21T10:34:34;11.40;99.90
13464;DHT22;6804;48.774;9.174;2023-11-21T10:37:12;11.40;99.90
13464;DHT22;6804;48.774;9.174;2023-11-21T10:39:44;11.40;99.90
13464;DHT22;6804;48.774;9.174;2023-11-21T10:42:12;11.40;99.90
13464;DHT22;6804;48.774;9.174;2023-11-21T10:44:42;11.40;99.90
13464;DHT22;6804;48.774;9.174;2023-11-21T10:47:14;11.40;99.90
13464;DHT22;6804;48.774;9.174;2023-11-21T10:49:42;11.40;99.90
13464;DHT22;6804;48.774;9.174;2023-11-21T10:52:13;11.40;99.90
13464;DHT22;6804;48.774;9.174;2023-11-21T10:54:45;11.30;99.90
13464;DHT22;6804;48.774;9.174;2023-11-21T10:57:18;11.30;99.90
13464;DHT22;6804;48.774;9.174;2023-11-21T10:59:55;11.30;99.90
13464;DHT22;6804;48.774;9.174;2023-11-21T11:02:24;11.30;99.90
13464;DHT22;6804;48.774;9.174;2023-11-21T11:04:54;11.30;99.90
13464;DHT22;6804;48.774;9.174;2023-11-21T11:07:26;11.30;99.90
13464;DHT22;6804;48.774;9.174;2023-11-21T11:09:58;11.30;99.90
13464;DHT22;6804;48.774;9.174;2023-11-21T11:12:31;11.30;99.90
13464;DHT22;6804;48.774;9.174;2023-11-21T11:15:03;11.30;99.90
13464;DHT22;6804;48.774;9.174;2023-11-21T11:17:32;11.40;99.90
13464;DHT22;6804;48.774;9.174;2023-11-21T11:20:04;11.50;99.90
13464;DHT22;6804;48.774;9.174;2023-11-21T11:22:40;11.60;99.90
13464;DHT22;6804;48.774;9.174;2023-11-21T11:25:36;11.60;99.90
13464;DHT22;6804;48.774;9.174;2023-11-21T11:28:10;11.70;99.90
13464;DHT22;6804;48.774;9.174;2023-11-21T11:30:49;11.70;99.90
13464;DHT22;6804;48.774;9.174;2023-11-21T11:33:28;11.70;99.90
13464;DHT22;6804;48.774;9.174;2023-11-21T11:36:06;11.70;99.90
13464;DHT22;6804;48.774;9.174;2023-11-21T11:38:38;11.70;99.90
13464;DHT22;6804;48.774;9.174;2023-11-21T11:41:07;11.60;99.90
13464;DHT22;6804;48.774;9.174;2023-11-21T11:43:36;11.60;99.90
13464;DHT22;6804;48.774;9.174;2023-11-21T11:46:14;11.60;99.90
13464;DHT22;6804;48.774;9.174;2023-11-21T11:48:45;11.70;99.90
13464;DHT22;6804;48.774;9.174;2023-11-21T11:51:15;11.80;99.90
13464;DHT22;6804;48.774;9.174;2023-11-21T11:53:47;11.80;99.90
13464;DHT22;6804;48.774;9.174;2023-11-21T11:56:28;11.90;99.90
13464;DHT22;6804;48.774;9.174;2023-11-21T11:58:59;11.90;99.90
13464;DHT22;6804;48.774;9.174;2023-11-21T12:01:31;12.00;99.90
13464;DHT22;6804;48.774;9.174;2023-11-21T12:04:25;12.00;99.90
13464;DHT22;6804;48.774;9.174;2023-11-21T12:07:02;12.00;99.90
13464;DHT22;6804;48.774;9.174;2023-11-21T12:09:32;12.00;99.90
13464;DHT22;6804;48.774;9.174;2023-11-21T12:12:12;12.00;99.90
13464;DHT22;6804;48.774;9.174;2023-11-21T12:14:46;12.00;99.90
13464;DHT22;6804;48.774;9.174;2023-11-21T12:17:15;11.90;99.90
13464;DHT22;6804;48.774;9.174;2023-11-21T12:19:48;11.90;99.90
13464;DHT22;6804;48.774;9.174;2023-11-21T12:22:19;11.90;99.90
13464;DHT22;6804;48.774;9.174;2023-11-21T12:24:47;11.90;99.90
13464;DHT22;6804;48.774;9.174;2023-11-21T12:27:17;11.90;99.90
13464;DHT22;6804;48.774;9.174;2023-11-21T12:29:46;11.90;99.90
13464;DHT22;6804;48.774;9.174;2023-11-21T12:32:14;11.90;99.90
13464;DHT22;6804;48.774;9.174;2023-11-21T12:34:45;11.90;99.90
13464;DHT22;6804;48.774;9.174;2023-11-21T12:37:14;11.80;99.90
13464;DHT22;6804;48.774;9.174;2023-11-21T12:39:45;11.60;99.90
13464;DHT22;6804;48.774;9.174;2023-11-21T12:42:14;11.40;99.90
13464;DHT22;6804;48.774;9.174;2023-11-21T12:44:46;11.40;99.90
13464;DHT22;6804;48.774;9.174;2023-11-21T12:47:18;11.50;99.90
13464;DHT22;6804;48.774;9.174;2023-11-21T12:49:48;11.60;99.90
13464;DHT22;6804;48.774;9.174;2023-11-21T12:52:18;11.60;99.90
13464;DHT22;6804;48.774;9.174;2023-11-21T12:54:47;11.70;99.90
13464;DHT22;6804;48.774;9.174;2023-11-21T12:57:15;11.70;99.90
13464;DHT22;6804;48.774;9.174;2023-11-21T12:59:47;11.70;99.90
13464;DHT22;6804;48.774;9.174;2023-11-21T13:02:16;11.70;99.90
13464;DHT22;6804;48.774;9.174;2023-11-21T13:04:52;11.70;99.90
13464;DHT22;6804;48.774;9.174;2023-11-21T13:07:26;11.60;99.90
13464;DHT22;6804;48.774;9.174;2023-11-21T13:09:57;11.60;99.90
13464;DHT22;6804;48.774;9.174;2023-11-21T13:12:25;11.60;99.90
13464;DHT22;6804;48.774;9.174;2023-11-21T13:14:56;11.60;99.90
13464;DHT22;6804;48.774;9.174;2023-11-21T13:17:27;11.70;99.90
13464;DHT22;6804;48.774;9.174;2023-11-21T13:19:55;11.80;99.90
13464;DHT22;6804;48.774;9.174;2023-11-21T13:22:25;11.90;99.90
13464;DHT22;6804;48.774;9.174;2023-11-21T13:24:55;11.90;99.90
13464;DHT22;6804;48.774;9.174;2023-11-21T13:27:27;11.80;99.90
13464;DHT22;6804;48.774;9.174;2023-11-21T13:29:58;11.80;99.90
13464;DHT22;6804;48.774;9.174;2023-11-21T13:32:26;11.70;99.90
13464;DHT22;6804;48.774;9.174;2023-11-21T13:34:54;11.60;99.90
13464;DHT22;6804;48.774;9.174;2023-11-21T13:37:22;11.50;99.90
13464;DHT22;6804;48.774;9.174;2023-11-21T13:39:56;11.40;99.90
13464;DHT22;6804;48.774;9.174;2023-11-21T13:42:31;11.40;99.90
13464;DHT22;6804;48.774;9.174;2023-11-21T13:45:04;11.30;99.90
13464;DHT22;6804;48.774;9.174;2023-11-21T13:47:34;11.30;99.90
13464;DHT22;6804;48.774;9.174;2023-11-21T13:50:05;11.30;99.90
13464;DHT22;6804;48.774;9.174;2023-11-21T13:52:45;11.20;99.90
13464;DHT22;6804;48.774;9.174;2023-11-21T13:55:16;11.20;99.90
13464;DHT22;6804;48.774;9.174;2023-11-21T13:57:48;11.20;99.90
13464;DHT22;6804;48.774;9.174;2023-11-21T14:00:20;11.10;99.90
13464;DHT22;6804;48.774;9.174;2023-11-21T14:03:12;11.10;99.90
13464;DHT22;6804;48.774;9.174;2023-11-21T14:05:51;11.20;99.90
13464;DHT22;6804;48.774;9.174;2023-11-21T14:08:22;11.20;99.90
13464;DHT22;6804;48.774;9.174;2023-11-21T14:10:54;11.20;99.90
13464;DHT22;6804;48.774;9.174;2023-11-21T14:13:23;11.20;99.90
13464;DHT22;6804;48.774;9.174;2023-11-21T14:15:56;11.20;99.90
13464;DHT22;6804;48.774;9.174;2023-11-21T14:18:30;11.20;99.90
13464;DHT22;6804;48.774;9.174;2023-11-21T14:21:08;11.20;99.90
13464;DHT22;6804;48.774;9.174;2023-11-21T14:23:39;11.20;99.90
13464;DHT22;6804;48.774;9.174;2023-11-21T14:26:11;11.10;99.90
13464;DHT22;6804;48.774;9.174;2023-11-21T14:28:42;11.10;99.90
13464;DHT22;6804;48.774;9.174;2023-11-21T14:31:14;11.10;99.90
13464;DHT22;6804;48.774;9.174;2023-11-21T14:33:44;11.10;99.90
13464;DHT22;6804;48.774;9.174;2023-11-21T14:36:14;11.10;99.90
13464;DHT22;6804;48.774;9.174;2023-11-21T14:38:45;11.10;99.90
13464;DHT22;6804;48.774;9.174;2023-11-21T14:41:13;11.00;99.90
13464;DHT22;6804;48.774;9.174;2023-11-21T14:43:41;11.00;99.90
13464;DHT22;6804;48.774;9.174;2023-11-21T14:46:11;11.00;99.90
13464;DHT22;6804;48.774;9.174;2023-11-21T14:48:45;11.00;99.90
13464;DHT22;6804;48.774;9.174;2023-11-21T14:51:22;11.00;99.90
13464;DHT22;6804;48.774;9.174;2023-11-21T14:53:54;11.00;99.90
13464;DHT22;6804;48.774;9.174;2023-11-21T14:56:22;10.90;99.90
13464;DHT22;6804;48.774;9.174;2023-11-21T14:58:58;10.90;99.90
13464;DHT22;6804;48.774;9.174;2023-11-21T15:01:33;10.90;99.90
13464;DHT22;6804;48.774;9.174;2023-11-21T15:04:25;11.00;99.90
13464;DHT22;6804;48.774;9.174;2023-11-21T15:07:04;10.90;99.90
13464;DHT22;6804;48.774;9.174;2023-11-21T15:09:34;10.90;99.90
13464;DHT22;6804;48.774;9.174;2023-11-21T15:12:11;10.90;99.90
13464;DHT22;6804;48.774;9.174;2023-11-21T15:14:43;10.90;99.90
13464;DHT22;6804;48.774;9.174;2023-11-21T15:17:15;10.90;99.90
13464;DHT22;6804;48.774;9.174;2023-11-21T15:19:52;10.90;99.90
13464;DHT22;6804;48.774;9.174;2023-11-21T15:22:21;10.90;99.90
13464;DHT22;6804;48.774;9.174;2023-11-21T15:24:50;10.90;99.90
13464;DHT22;6804;48.774;9.174;2023-11-21T15:27:22;10.90;99.90
13464;DHT22;6804;48.774;9.174;2023-11-21T15:29:51;10.90;99.90
13464;DHT22;6804;48.774;9.174;2023-11-21T15:32:20;10.90;99.90
13464;DHT22;6804;48.774;9.174;2023-11-21T15:34:53;10.90;99.90
13464;DHT22;6804;48.774;9.174;2023-11-21T15:37:21;10.90;99.90
13464;DHT22;6804;48.774;9.174;2023-11-21T15:39:55;10.90;99.90
13464;DHT22;6804;48.774;9.174;2023-11-21T15:42:26;11.00;99.90
13464;DHT22;6804;48.774;9.174;2023-11-21T15:45:01;10.90;99.90
13464;DHT22;6804;48.774;9.174;2023-11-21T15:47:32;10.90;99.90
13464;DHT22;6804;48.774;9.174;2023-11-21T15:50:01;10.90;99.90
13464;DHT22;6804;48.774;9.174;2023-11-21T15:52:32;11.00;99.90
13464;DHT22;6804;48.774;9.174;2023-11-21T15:55:01;10.90;99.90
13464;DHT22;6804;48.774;9.174;2023-11-21T15:57:32;10.90;99.90
13464;DHT22;6804;48.774;9.174;2023-11-21T16:00:00;10.90;99.90
13464;DHT22;6804;48.774;9.174;2023-11-21T16:02:34;10.90;99.90
13464;DHT22;6804;48.774;9.174;2023-11-21T16:05:05;10.80;99.90
13464;DHT22;6804;48.774;9.174;2023-11-21T16:07:34;10.80;99.90
13464;DHT22;6804;48.774;9.174;2023-11-21T16:10:02;10.80;99.90